Terminal Aerodrome Forecast
Issued by NWS Twin Cities, MN

Home | Current Version | Previous Version | Graphics & Text | Print | Product List | Glossary On
Versions: 1 2 3 4 5 6 7 8 9 10 11 12 13 14 15 16 17 18 19 20 21 22 23 24 25 26 27
913
FTUS43 KMPX 180532
TAFMSP
TAF
KMSP 180532Z 1806/1912 VRB03KT P6SM VCSH OVC110
     FM180800 13004KT P6SM BKN110
     FM181600 14011KT P6SM -RA SCT040 OVC060
     FM182200 13009KT P6SM VCSH SCT030 OVC050
     FM190000 13008KT P6SM OVC040=

USA.gov is the U.S. government's official web portal to all federal, state and local government web resources and services.